sensor_id;sensor_type;location;lat;lon;timestamp;P1;durP1;ratioP1;P2;durP2;ratioP2
76477;SDS011;65309;49.790;18.972;2023-12-20T00:01:27;5.53;;;2.88;;
76477;SDS011;65309;49.790;18.972;2023-12-20T00:06:29;5.22;;;3.72;;
76477;SDS011;65309;49.790;18.972;2023-12-20T00:11:33;3.22;;;2.58;;
76477;SDS011;65309;49.790;18.972;2023-12-20T00:16:35;5.15;;;2.35;;
76477;SDS011;65309;49.790;18.972;2023-12-20T00:21:38;4.55;;;2.88;;
76477;SDS011;65309;49.790;18.972;2023-12-20T00:26:41;4.82;;;2.97;;
76477;SDS011;65309;49.790;18.972;2023-12-20T00:31:44;4.93;;;2.63;;
76477;SDS011;65309;49.790;18.972;2023-12-20T00:36:46;3.10;;;2.38;;
76477;SDS011;65309;49.790;18.972;2023-12-20T00:41:50;4.40;;;2.60;;
76477;SDS011;65309;49.790;18.972;2023-12-20T00:46:53;4.45;;;2.78;;
76477;SDS011;65309;49.790;18.972;2023-12-20T00:51:55;4.30;;;2.80;;
76477;SDS011;65309;49.790;18.972;2023-12-20T00:56:58;4.75;;;3.05;;
76477;SDS011;65309;49.790;18.972;2023-12-20T01:02:01;4.93;;;3.17;;
76477;SDS011;65309;49.790;18.972;2023-12-20T01:07:04;5.90;;;3.42;;
76477;SDS011;65309;49.790;18.972;2023-12-20T01:12:07;5.65;;;3.72;;
76477;SDS011;65309;49.790;18.972;2023-12-20T01:17:09;3.78;;;2.88;;
76477;SDS011;65309;49.790;18.972;2023-12-20T01:22:12;6.55;;;3.95;;
76477;SDS011;65309;49.790;18.972;2023-12-20T01:27:15;4.57;;;2.85;;
76477;SDS011;65309;49.790;18.972;2023-12-20T01:32:18;4.97;;;3.17;;
76477;SDS011;65309;49.790;18.972;2023-12-20T01:37:20;4.35;;;2.90;;
76477;SDS011;65309;49.790;18.972;2023-12-20T01:42:24;5.55;;;2.78;;
76477;SDS011;65309;49.790;18.972;2023-12-20T01:47:26;3.65;;;2.72;;
76477;SDS011;65309;49.790;18.972;2023-12-20T01:52:29;2.97;;;2.30;;
76477;SDS011;65309;49.790;18.972;2023-12-20T01:57:33;3.95;;;2.65;;
76477;SDS011;65309;49.790;18.972;2023-12-20T02:02:35;3.83;;;2.60;;
76477;SDS011;65309;49.790;18.972;2023-12-20T02:07:40;4.35;;;2.75;;
76477;SDS011;65309;49.790;18.972;2023-12-20T02:12:44;4.53;;;2.92;;
76477;SDS011;65309;49.790;18.972;2023-12-20T02:17:47;4.47;;;2.83;;
76477;SDS011;65309;49.790;18.972;2023-12-20T02:22:52;4.03;;;2.88;;
76477;SDS011;65309;49.790;18.972;2023-12-20T02:27:54;4.53;;;2.60;;
76477;SDS011;65309;49.790;18.972;2023-12-20T02:32:57;5.63;;;3.20;;
76477;SDS011;65309;49.790;18.972;2023-12-20T02:38:03;2.92;;;2.20;;
76477;SDS011;65309;49.790;18.972;2023-12-20T02:43:05;4.47;;;2.60;;
76477;SDS011;65309;49.790;18.972;2023-12-20T02:48:08;4.32;;;3.28;;
76477;SDS011;65309;49.790;18.972;2023-12-20T02:53:11;6.13;;;2.53;;
76477;SDS011;65309;49.790;18.972;2023-12-20T02:58:13;4.13;;;3.38;;
76477;SDS011;65309;49.790;18.972;2023-12-20T03:03:16;2.92;;;2.60;;
76477;SDS011;65309;49.790;18.972;2023-12-20T03:08:19;4.43;;;2.22;;
76477;SDS011;65309;49.790;18.972;2023-12-20T03:13:22;2.83;;;1.85;;
76477;SDS011;65309;49.790;18.972;2023-12-20T03:18:24;4.15;;;2.60;;
76477;SDS011;65309;49.790;18.972;2023-12-20T03:23:28;3.22;;;2.38;;
76477;SDS011;65309;49.790;18.972;2023-12-20T03:28:33;4.68;;;2.15;;
76477;SDS011;65309;49.790;18.972;2023-12-20T03:33:36;2.47;;;1.73;;
76477;SDS011;65309;49.790;18.972;2023-12-20T03:38:39;3.97;;;2.95;;
76477;SDS011;65309;49.790;18.972;2023-12-20T03:43:42;2.90;;;1.92;;
76477;SDS011;65309;49.790;18.972;2023-12-20T03:48:44;3.47;;;2.15;;
76477;SDS011;65309;49.790;18.972;2023-12-20T03:53:47;2.38;;;1.85;;
76477;SDS011;65309;49.790;18.972;2023-12-20T03:58:50;5.18;;;3.17;;
76477;SDS011;65309;49.790;18.972;2023-12-20T04:03:52;5.43;;;3.28;;
76477;SDS011;65309;49.790;18.972;2023-12-20T04:08:55;3.67;;;2.30;;
76477;SDS011;65309;49.790;18.972;2023-12-20T04:13:58;4.38;;;2.95;;
76477;SDS011;65309;49.790;18.972;2023-12-20T04:19:00;7.43;;;3.25;;
76477;SDS011;65309;49.790;18.972;2023-12-20T04:24:04;9.40;;;4.35;;
76477;SDS011;65309;49.790;18.972;2023-12-20T04:29:07;6.18;;;2.92;;
76477;SDS011;65309;49.790;18.972;2023-12-20T04:34:09;6.80;;;4.05;;
76477;SDS011;65309;49.790;18.972;2023-12-20T04:39:12;5.97;;;2.88;;
76477;SDS011;65309;49.790;18.972;2023-12-20T04:44:15;6.30;;;3.28;;
76477;SDS011;65309;49.790;18.972;2023-12-20T04:49:17;3.03;;;2.50;;
76477;SDS011;65309;49.790;18.972;2023-12-20T04:54:21;5.45;;;3.38;;
76477;SDS011;65309;49.790;18.972;2023-12-20T04:59:24;6.65;;;4.22;;
76477;SDS011;65309;49.790;18.972;2023-12-20T05:04:26;4.68;;;2.50;;
76477;SDS011;65309;49.790;18.972;2023-12-20T05:09:29;4.93;;;2.78;;
76477;SDS011;65309;49.790;18.972;2023-12-20T05:14:32;2.83;;;2.22;;
76477;SDS011;65309;49.790;18.972;2023-12-20T05:19:34;5.18;;;3.00;;
76477;SDS011;65309;49.790;18.972;2023-12-20T05:24:38;5.63;;;3.83;;
76477;SDS011;65309;49.790;18.972;2023-12-20T05:29:41;7.88;;;4.30;;
76477;SDS011;65309;49.790;18.972;2023-12-20T05:34:43;6.50;;;4.40;;
76477;SDS011;65309;49.790;18.972;2023-12-20T05:39:47;6.93;;;4.40;;
76477;SDS011;65309;49.790;18.972;2023-12-20T05:44:49;9.07;;;5.15;;
76477;SDS011;65309;49.790;18.972;2023-12-20T05:49:54;9.18;;;4.75;;
76477;SDS011;65309;49.790;18.972;2023-12-20T05:54:58;4.20;;;3.42;;
76477;SDS011;65309;49.790;18.972;2023-12-20T06:00:03;9.73;;;5.53;;
76477;SDS011;65309;49.790;18.972;2023-12-20T06:05:06;6.35;;;4.93;;
76477;SDS011;65309;49.790;18.972;2023-12-20T06:10:10;10.55;;;6.72;;
76477;SDS011;65309;49.790;18.972;2023-12-20T06:15:12;9.25;;;6.43;;
76477;SDS011;65309;49.790;18.972;2023-12-20T06:20:15;8.48;;;6.13;;
76477;SDS011;65309;49.790;18.972;2023-12-20T06:25:19;15.93;;;10.73;;
76477;SDS011;65309;49.790;18.972;2023-12-20T06:30:21;18.30;;;9.23;;
76477;SDS011;65309;49.790;18.972;2023-12-20T06:35:23;17.30;;;10.27;;
76477;SDS011;65309;49.790;18.972;2023-12-20T06:40:27;13.55;;;9.48;;
76477;SDS011;65309;49.790;18.972;2023-12-20T06:45:29;13.07;;;6.93;;
76477;SDS011;65309;49.790;18.972;2023-12-20T06:50:31;11.75;;;7.68;;
76477;SDS011;65309;49.790;18.972;2023-12-20T06:55:35;9.95;;;7.35;;
76477;SDS011;65309;49.790;18.972;2023-12-20T07:00:39;11.40;;;6.10;;
76477;SDS011;65309;49.790;18.972;2023-12-20T07:05:42;8.15;;;6.85;;
76477;SDS011;65309;49.790;18.972;2023-12-20T07:10:45;10.93;;;7.57;;
76477;SDS011;65309;49.790;18.972;2023-12-20T07:15:47;7.22;;;5.20;;
76477;SDS011;65309;49.790;18.972;2023-12-20T07:20:50;11.60;;;8.93;;
76477;SDS011;65309;49.790;18.972;2023-12-20T07:25:53;5.38;;;4.47;;
76477;SDS011;65309;49.790;18.972;2023-12-20T07:30:56;8.07;;;5.45;;
76477;SDS011;65309;49.790;18.972;2023-12-20T07:35:59;11.13;;;7.28;;
76477;SDS011;65309;49.790;18.972;2023-12-20T07:41:03;7.10;;;4.97;;
76477;SDS011;65309;49.790;18.972;2023-12-20T07:46:05;4.97;;;3.25;;
76477;SDS011;65309;49.790;18.972;2023-12-20T07:51:08;4.32;;;3.08;;
76477;SDS011;65309;49.790;18.972;2023-12-20T07:56:16;2.25;;;2.05;;
76477;SDS011;65309;49.790;18.972;2023-12-20T08:01:19;3.90;;;2.97;;
76477;SDS011;65309;49.790;18.972;2023-12-20T08:06:23;2.88;;;2.15;;
76477;SDS011;65309;49.790;18.972;2023-12-20T08:11:26;4.13;;;3.10;;
76477;SDS011;65309;49.790;18.972;2023-12-20T08:16:29;3.03;;;2.08;;
76477;SDS011;65309;49.790;18.972;2023-12-20T08:21:32;2.55;;;1.70;;
76477;SDS011;65309;49.790;18.972;2023-12-20T08:26:40;3.78;;;2.30;;
76477;SDS011;65309;49.790;18.972;2023-12-20T08:31:42;6.22;;;2.55;;
76477;SDS011;65309;49.790;18.972;2023-12-20T08:36:44;4.60;;;3.22;;
76477;SDS011;65309;49.790;18.972;2023-12-20T08:41:48;3.20;;;2.13;;
76477;SDS011;65309;49.790;18.972;2023-12-20T08:46:50;3.28;;;2.38;;
76477;SDS011;65309;49.790;18.972;2023-12-20T08:51:53;3.75;;;2.45;;
76477;SDS011;65309;49.790;18.972;2023-12-20T08:56:56;2.30;;;1.70;;
76477;SDS011;65309;49.790;18.972;2023-12-20T09:01:59;2.03;;;1.55;;
76477;SDS011;65309;49.790;18.972;2023-12-20T09:07:01;3.17;;;2.05;;
76477;SDS011;65309;49.790;18.972;2023-12-20T09:12:05;3.72;;;2.63;;
76477;SDS011;65309;49.790;18.972;2023-12-20T09:17:09;3.13;;;2.47;;
76477;SDS011;65309;49.790;18.972;2023-12-20T09:22:13;3.42;;;2.03;;
76477;SDS011;65309;49.790;18.972;2023-12-20T09:27:17;1.75;;;1.10;;
76477;SDS011;65309;49.790;18.972;2023-12-20T09:32:19;5.00;;;3.10;;
76477;SDS011;65309;49.790;18.972;2023-12-20T09:37:25;6.32;;;3.33;;
76477;SDS011;65309;49.790;18.972;2023-12-20T09:42:33;4.55;;;2.60;;
76477;SDS011;65309;49.790;18.972;2023-12-20T09:47:44;3.72;;;2.45;;
76477;SDS011;65309;49.790;18.972;2023-12-20T09:52:47;4.70;;;2.38;;
76477;SDS011;65309;49.790;18.972;2023-12-20T09:57:53;2.90;;;2.03;;
76477;SDS011;65309;49.790;18.972;2023-12-20T10:02:56;4.05;;;2.25;;
76477;SDS011;65309;49.790;18.972;2023-12-20T10:08:00;4.43;;;1.60;;
76477;SDS011;65309;49.790;18.972;2023-12-20T10:13:06;3.17;;;2.13;;
76477;SDS011;65309;49.790;18.972;2023-12-20T10:18:11;3.72;;;2.80;;
76477;SDS011;65309;49.790;18.972;2023-12-20T10:23:15;4.30;;;2.55;;
76477;SDS011;65309;49.790;18.972;2023-12-20T10:28:19;3.92;;;2.70;;
76477;SDS011;65309;49.790;18.972;2023-12-20T10:33:25;2.65;;;1.80;;
76477;SDS011;65309;49.790;18.972;2023-12-20T10:38:28;3.33;;;2.40;;
76477;SDS011;65309;49.790;18.972;2023-12-20T10:43:33;2.63;;;1.73;;
76477;SDS011;65309;49.790;18.972;2023-12-20T10:48:36;3.72;;;2.55;;
76477;SDS011;65309;49.790;18.972;2023-12-20T10:53:41;4.72;;;2.45;;
76477;SDS011;65309;49.790;18.972;2023-12-20T10:58:48;3.20;;;2.17;;
76477;SDS011;65309;49.790;18.972;2023-12-20T11:03:52;2.20;;;1.83;;
76477;SDS011;65309;49.790;18.972;2023-12-20T11:09:02;4.00;;;2.70;;
76477;SDS011;65309;49.790;18.972;2023-12-20T11:14:14;3.83;;;2.40;;
76477;SDS011;65309;49.790;18.972;2023-12-20T11:19:20;2.85;;;2.08;;
76477;SDS011;65309;49.790;18.972;2023-12-20T11:24:23;3.78;;;2.65;;
76477;SDS011;65309;49.790;18.972;2023-12-20T11:29:35;2.35;;;1.58;;
76477;SDS011;65309;49.790;18.972;2023-12-20T11:34:39;3.65;;;2.33;;
76477;SDS011;65309;49.790;18.972;2023-12-20T11:39:44;1.38;;;1.17;;
76477;SDS011;65309;49.790;18.972;2023-12-20T11:44:47;1.67;;;1.42;;
76477;SDS011;65309;49.790;18.972;2023-12-20T11:49:50;3.65;;;2.78;;
76477;SDS011;65309;49.790;18.972;2023-12-20T11:54:53;2.38;;;2.03;;
76477;SDS011;65309;49.790;18.972;2023-12-20T11:59:56;2.08;;;1.58;;
76477;SDS011;65309;49.790;18.972;2023-12-20T12:04:59;2.97;;;1.80;;
76477;SDS011;65309;49.790;18.972;2023-12-20T12:10:02;3.17;;;1.77;;
76477;SDS011;65309;49.790;18.972;2023-12-20T12:15:09;2.45;;;1.80;;
76477;SDS011;65309;49.790;18.972;2023-12-20T12:20:11;2.97;;;2.33;;
76477;SDS011;65309;49.790;18.972;2023-12-20T12:25:14;2.47;;;1.80;;
76477;SDS011;65309;49.790;18.972;2023-12-20T12:30:18;3.40;;;2.35;;
76477;SDS011;65309;49.790;18.972;2023-12-20T12:35:20;2.67;;;2.42;;
76477;SDS011;65309;49.790;18.972;2023-12-20T12:40:23;6.15;;;2.58;;
76477;SDS011;65309;49.790;18.972;2023-12-20T12:45:27;6.25;;;4.00;;
76477;SDS011;65309;49.790;18.972;2023-12-20T12:50:30;3.28;;;1.95;;
76477;SDS011;65309;49.790;18.972;2023-12-20T12:55:32;3.67;;;2.50;;
76477;SDS011;65309;49.790;18.972;2023-12-20T13:00:37;3.15;;;2.28;;
76477;SDS011;65309;49.790;18.972;2023-12-20T13:05:39;4.72;;;3.17;;
76477;SDS011;65309;49.790;18.972;2023-12-20T13:10:45;2.85;;;1.63;;
76477;SDS011;65309;49.790;18.972;2023-12-20T13:15:48;2.65;;;2.05;;
76477;SDS011;65309;49.790;18.972;2023-12-20T13:20:54;4.05;;;2.97;;
76477;SDS011;65309;49.790;18.972;2023-12-20T13:25:57;5.43;;;2.95;;
76477;SDS011;65309;49.790;18.972;2023-12-20T13:31:00;3.70;;;2.53;;
76477;SDS011;65309;49.790;18.972;2023-12-20T13:36:03;2.33;;;1.60;;
76477;SDS011;65309;49.790;18.972;2023-12-20T13:41:09;2.50;;;1.85;;
76477;SDS011;65309;49.790;18.972;2023-12-20T13:46:12;3.88;;;3.03;;
76477;SDS011;65309;49.790;18.972;2023-12-20T13:51:16;4.13;;;2.20;;
76477;SDS011;65309;49.790;18.972;2023-12-20T13:56:18;4.25;;;2.97;;
76477;SDS011;65309;49.790;18.972;2023-12-20T14:01:24;2.30;;;1.65;;
76477;SDS011;65309;49.790;18.972;2023-12-20T14:06:26;7.07;;;3.72;;
76477;SDS011;65309;49.790;18.972;2023-12-20T14:11:29;3.72;;;3.10;;
76477;SDS011;65309;49.790;18.972;2023-12-20T14:16:33;2.28;;;2.00;;
76477;SDS011;65309;49.790;18.972;2023-12-20T14:21:35;2.35;;;1.95;;
76477;SDS011;65309;49.790;18.972;2023-12-20T14:26:37;2.92;;;2.28;;
76477;SDS011;65309;49.790;18.972;2023-12-20T14:31:41;6.25;;;3.90;;
76477;SDS011;65309;49.790;18.972;2023-12-20T14:36:43;6.10;;;4.35;;
76477;SDS011;65309;49.790;18.972;2023-12-20T14:41:45;2.97;;;2.25;;
76477;SDS011;65309;49.790;18.972;2023-12-20T14:46:49;2.38;;;2.00;;
76477;SDS011;65309;49.790;18.972;2023-12-20T14:51:52;3.35;;;2.30;;
76477;SDS011;65309;49.790;18.972;2023-12-20T14:56:54;3.75;;;2.33;;
76477;SDS011;65309;49.790;18.972;2023-12-20T15:02:07;2.90;;;2.33;;
76477;SDS011;65309;49.790;18.972;2023-12-20T15:07:09;6.85;;;3.50;;
76477;SDS011;65309;49.790;18.972;2023-12-20T15:12:11;5.50;;;3.88;;
76477;SDS011;65309;49.790;18.972;2023-12-20T15:17:15;5.68;;;3.72;;
76477;SDS011;65309;49.790;18.972;2023-12-20T15:22:17;6.18;;;4.13;;
76477;SDS011;65309;49.790;18.972;2023-12-20T15:27:20;4.43;;;2.42;;
76477;SDS011;65309;49.790;18.972;2023-12-20T15:32:27;4.47;;;3.20;;
76477;SDS011;65309;49.790;18.972;2023-12-20T15:37:29;7.50;;;3.63;;
76477;SDS011;65309;49.790;18.972;2023-12-20T15:42:32;3.53;;;2.63;;
76477;SDS011;65309;49.790;18.972;2023-12-20T15:47:39;4.30;;;2.90;;
76477;SDS011;65309;49.790;18.972;2023-12-20T15:52:42;3.53;;;2.67;;
76477;SDS011;65309;49.790;18.972;2023-12-20T15:57:45;6.18;;;2.90;;
76477;SDS011;65309;49.790;18.972;2023-12-20T16:02:57;5.00;;;2.78;;
76477;SDS011;65309;49.790;18.972;2023-12-20T16:07:59;2.20;;;1.83;;
76477;SDS011;65309;49.790;18.972;2023-12-20T16:13:01;1.98;;;1.75;;
76477;SDS011;65309;49.790;18.972;2023-12-20T16:18:05;2.28;;;2.05;;
76477;SDS011;65309;49.790;18.972;2023-12-20T16:23:11;3.72;;;2.95;;
76477;SDS011;65309;49.790;18.972;2023-12-20T16:28:13;3.78;;;2.78;;
76477;SDS011;65309;49.790;18.972;2023-12-20T16:33:17;2.58;;;1.75;;
76477;SDS011;65309;49.790;18.972;2023-12-20T16:38:19;3.75;;;2.25;;
76477;SDS011;65309;49.790;18.972;2023-12-20T16:43:21;2.88;;;2.20;;
76477;SDS011;65309;49.790;18.972;2023-12-20T16:48:26;2.47;;;2.03;;
76477;SDS011;65309;49.790;18.972;2023-12-20T16:53:28;6.63;;;2.85;;
76477;SDS011;65309;49.790;18.972;2023-12-20T16:58:31;4.18;;;2.17;;
76477;SDS011;65309;49.790;18.972;2023-12-20T17:03:34;4.75;;;3.00;;
76477;SDS011;65309;49.790;18.972;2023-12-20T17:08:36;5.50;;;3.00;;
76477;SDS011;65309;49.790;18.972;2023-12-20T17:13:39;2.67;;;1.75;;
76477;SDS011;65309;49.790;18.972;2023-12-20T17:18:42;3.97;;;2.15;;
76477;SDS011;65309;49.790;18.972;2023-12-20T17:23:50;4.25;;;2.63;;
76477;SDS011;65309;49.790;18.972;2023-12-20T17:28:53;3.20;;;1.95;;
76477;SDS011;65309;49.790;18.972;2023-12-20T17:33:56;1.60;;;1.50;;
76477;SDS011;65309;49.790;18.972;2023-12-20T17:38:59;3.35;;;2.13;;
76477;SDS011;65309;49.790;18.972;2023-12-20T17:44:01;4.03;;;2.70;;
76477;SDS011;65309;49.790;18.972;2023-12-20T17:49:04;3.92;;;2.17;;
76477;SDS011;65309;49.790;18.972;2023-12-20T17:54:07;2.60;;;1.58;;
76477;SDS011;65309;49.790;18.972;2023-12-20T17:59:10;8.63;;;2.78;;
76477;SDS011;65309;49.790;18.972;2023-12-20T18:04:14;3.50;;;2.10;;
76477;SDS011;65309;49.790;18.972;2023-12-20T18:09:16;3.47;;;2.03;;
76477;SDS011;65309;49.790;18.972;2023-12-20T18:14:18;3.10;;;2.17;;
76477;SDS011;65309;49.790;18.972;2023-12-20T18:19:22;1.88;;;1.40;;
76477;SDS011;65309;49.790;18.972;2023-12-20T18:24:24;1.63;;;1.15;;
76477;SDS011;65309;49.790;18.972;2023-12-20T18:29:26;2.58;;;1.30;;
76477;SDS011;65309;49.790;18.972;2023-12-20T18:34:30;4.90;;;2.70;;
76477;SDS011;65309;49.790;18.972;2023-12-20T18:39:35;2.30;;;1.90;;
76477;SDS011;65309;49.790;18.972;2023-12-20T18:44:38;1.77;;;1.30;;
76477;SDS011;65309;49.790;18.972;2023-12-20T18:49:42;3.88;;;2.47;;
76477;SDS011;65309;49.790;18.972;2023-12-20T18:54:44;2.47;;;1.92;;
76477;SDS011;65309;49.790;18.972;2023-12-20T18:59:46;2.53;;;1.63;;
76477;SDS011;65309;49.790;18.972;2023-12-20T19:04:50;3.42;;;1.90;;
76477;SDS011;65309;49.790;18.972;2023-12-20T19:09:52;2.55;;;1.88;;
76477;SDS011;65309;49.790;18.972;2023-12-20T19:14:55;2.60;;;1.30;;
76477;SDS011;65309;49.790;18.972;2023-12-20T19:19:58;2.30;;;1.63;;
76477;SDS011;65309;49.790;18.972;2023-12-20T19:25:01;3.78;;;1.95;;
76477;SDS011;65309;49.790;18.972;2023-12-20T19:30:08;4.30;;;1.83;;
76477;SDS011;65309;49.790;18.972;2023-12-20T19:35:12;2.15;;;1.55;;
76477;SDS011;65309;49.790;18.972;2023-12-20T19:40:15;2.70;;;2.03;;
76477;SDS011;65309;49.790;18.972;2023-12-20T19:45:19;5.30;;;2.25;;
76477;SDS011;65309;49.790;18.972;2023-12-20T19:50:23;2.60;;;1.92;;
76477;SDS011;65309;49.790;18.972;2023-12-20T19:55:25;1.23;;;0.95;;
76477;SDS011;65309;49.790;18.972;2023-12-20T20:00:29;0.88;;;0.77;;
76477;SDS011;65309;49.790;18.972;2023-12-20T20:05:48;1.85;;;1.23;;
76477;SDS011;65309;49.790;18.972;2023-12-20T20:10:51;1.55;;;1.13;;
76477;SDS011;65309;49.790;18.972;2023-12-20T20:15:53;3.15;;;1.90;;
76477;SDS011;65309;49.790;18.972;2023-12-20T20:20:57;2.08;;;1.20;;
76477;SDS011;65309;49.790;18.972;2023-12-20T20:25:59;4.50;;;1.35;;
76477;SDS011;65309;49.790;18.972;2023-12-20T20:31:01;1.90;;;1.02;;
76477;SDS011;65309;49.790;18.972;2023-12-20T20:36:06;1.52;;;1.20;;
76477;SDS011;65309;49.790;18.972;2023-12-20T20:41:10;2.63;;;1.67;;
76477;SDS011;65309;49.790;18.972;2023-12-20T20:46:12;2.35;;;1.70;;
76477;SDS011;65309;49.790;18.972;2023-12-20T20:51:16;2.28;;;1.58;;
76477;SDS011;65309;49.790;18.972;2023-12-20T20:56:18;3.58;;;2.22;;
76477;SDS011;65309;49.790;18.972;2023-12-20T21:01:21;4.05;;;1.85;;
76477;SDS011;65309;49.790;18.972;2023-12-20T21:06:24;3.05;;;2.10;;
76477;SDS011;65309;49.790;18.972;2023-12-20T21:11:29;1.60;;;1.50;;
76477;SDS011;65309;49.790;18.972;2023-12-20T21:16:31;3.00;;;1.60;;
76477;SDS011;65309;49.790;18.972;2023-12-20T21:21:36;3.38;;;2.08;;
76477;SDS011;65309;49.790;18.972;2023-12-20T21:26:38;2.08;;;1.48;;
76477;SDS011;65309;49.790;18.972;2023-12-20T21:31:41;2.50;;;1.73;;
76477;SDS011;65309;49.790;18.972;2023-12-20T21:36:44;3.35;;;2.08;;
76477;SDS011;65309;49.790;18.972;2023-12-20T21:41:47;3.65;;;1.98;;
76477;SDS011;65309;49.790;18.972;2023-12-20T21:46:49;5.65;;;3.03;;
76477;SDS011;65309;49.790;18.972;2023-12-20T21:51:52;1.73;;;1.48;;
76477;SDS011;65309;49.790;18.972;2023-12-20T21:56:55;3.20;;;2.25;;
76477;SDS011;65309;49.790;18.972;2023-12-20T22:01:58;4.70;;;2.15;;
76477;SDS011;65309;49.790;18.972;2023-12-20T22:07:01;5.90;;;2.80;;
76477;SDS011;65309;49.790;18.972;2023-12-20T22:12:04;2.92;;;2.03;;
76477;SDS011;65309;49.790;18.972;2023-12-20T22:22:11;3.28;;;1.55;;
76477;SDS011;65309;49.790;18.972;2023-12-20T22:27:13;2.50;;;1.58;;
76477;SDS011;65309;49.790;18.972;2023-12-20T22:32:15;2.83;;;1.40;;
76477;SDS011;65309;49.790;18.972;2023-12-20T22:37:19;4.53;;;1.70;;
76477;SDS011;65309;49.790;18.972;2023-12-20T22:42:21;2.30;;;1.48;;
76477;SDS011;65309;49.790;18.972;2023-12-20T22:47:23;3.67;;;2.88;;
76477;SDS011;65309;49.790;18.972;2023-12-20T22:52:27;3.30;;;2.50;;
76477;SDS011;65309;49.790;18.972;2023-12-20T22:57:30;3.63;;;2.58;;
76477;SDS011;65309;49.790;18.972;2023-12-20T23:02:32;5.22;;;2.65;;
76477;SDS011;65309;49.790;18.972;2023-12-20T23:07:35;1.45;;;1.33;;
76477;SDS011;65309;49.790;18.972;2023-12-20T23:12:38;2.80;;;1.75;;
76477;SDS011;65309;49.790;18.972;2023-12-20T23:17:41;2.47;;;1.88;;
76477;SDS011;65309;49.790;18.972;2023-12-20T23:22:45;1.60;;;1.45;;
76477;SDS011;65309;49.790;18.972;2023-12-20T23:27:47;2.83;;;1.58;;
76477;SDS011;65309;49.790;18.972;2023-12-20T23:32:53;0.95;;;0.80;;
76477;SDS011;65309;49.790;18.972;2023-12-20T23:37:57;2.63;;;1.63;;
76477;SDS011;65309;49.790;18.972;2023-12-20T23:42:59;1.55;;;1.25;;
76477;SDS011;65309;49.790;18.972;2023-12-20T23:48:01;1.17;;;0.98;;
76477;SDS011;65309;49.790;18.972;2023-12-20T23:53:05;1.63;;;1.27;;
76477;SDS011;65309;49.790;18.972;2023-12-20T23:58:10;2.35;;;1.77;;
